createdAt,value
2017-03-31T00:00:22.243Z,1021
2017-03-31T00:01:44.064Z,1021.01
2017-03-31T00:03:06.203Z,1021
2017-03-31T00:04:28.315Z,1020.93
2017-03-31T00:05:50.157Z,1020.92
2017-03-31T00:07:11.687Z,1020.91
2017-03-31T00:08:33.577Z,1020.89
2017-03-31T00:09:55.745Z,1020.83
2017-03-31T00:11:17.597Z,1020.83
2017-03-31T00:12:39.500Z,1020.85
2017-03-31T00:14:01.330Z,1020.82
2017-03-31T00:15:23.467Z,1020.77
2017-03-31T00:16:45.705Z,1020.84
2017-03-31T00:18:08.166Z,1020.83
2017-03-31T00:19:29.687Z,1020.79
2017-03-31T00:20:52.128Z,1020.79
2017-03-31T00:22:14.277Z,1020.82
2017-03-31T00:23:35.507Z,1020.81
2017-03-31T00:24:57.375Z,1020.78
2017-03-31T00:26:20.137Z,1020.8
2017-03-31T00:27:42.280Z,1020.74
2017-03-31T00:29:04.466Z,1020.75
2017-03-31T00:30:26.284Z,1020.71
2017-03-31T00:31:48.956Z,1020.71
2017-03-31T00:33:10.896Z,1020.71
2017-03-31T00:34:33.037Z,1020.72
2017-03-31T00:35:54.547Z,1020.72
2017-03-31T00:37:17.262Z,1020.67
2017-03-31T00:38:39.087Z,1020.66
2017-03-31T00:40:00.584Z,1020.63
2017-03-31T00:41:21.888Z,1020.66
2017-03-31T00:42:44.037Z,1020.62
2017-03-31T00:44:05.845Z,1020.63
2017-03-31T00:45:27.662Z,1020.62
2017-03-31T00:46:50.139Z,1020.55
2017-03-31T00:48:12.275Z,1020.56
2017-03-31T00:49:34.163Z,1020.58
2017-03-31T00:50:55.696Z,1020.55
2017-03-31T00:52:17.527Z,1020.49
2017-03-31T00:53:39.610Z,1020.47
2017-03-31T00:55:01.755Z,1020.45
2017-03-31T00:56:23.636Z,1020.45
2017-03-31T00:57:45.136Z,1020.43
2017-03-31T00:59:07.586Z,1020.43
2017-03-31T01:00:29.085Z,1020.43
2017-03-31T01:01:51.226Z,1020.43
2017-03-31T01:03:13.428Z,1020.39
2017-03-31T01:04:36.236Z,1020.38
2017-03-31T01:05:57.736Z,1020.36
2017-03-31T01:07:20.196Z,1020.38
2017-03-31T01:08:41.696Z,1020.32
2017-03-31T01:10:04.096Z,1020.28
2017-03-31T01:11:25.306Z,1020.28
2017-03-31T01:12:47.472Z,1020.28
2017-03-31T01:14:09.366Z,1020.25
2017-03-31T01:15:31.174Z,1020.22
2017-03-31T01:16:53.036Z,1020.18
2017-03-31T01:18:15.286Z,1020.18
2017-03-31T01:19:37.487Z,1020.13
2017-03-31T01:20:59.868Z,1020.14
2017-03-31T01:22:22.338Z,1020.14
2017-03-31T01:23:44.175Z,1020.1
2017-03-31T01:25:06.112Z,1020.08
2017-03-31T01:26:28.807Z,1020.07
2017-03-31T01:27:50.625Z,1020.1
2017-03-31T01:29:12.755Z,1020.09
2017-03-31T01:30:34.276Z,1020.06
2017-03-31T01:31:56.092Z,1020.04
2017-03-31T01:33:17.938Z,1020.05
2017-03-31T01:34:40.108Z,1020.04
2017-03-31T01:36:01.635Z,1020.03
2017-03-31T01:37:23.766Z,1020.02
2017-03-31T01:38:45.936Z,1019.98
2017-03-31T01:40:07.748Z,1019.98
2017-03-31T01:41:29.257Z,1020
2017-03-31T01:42:51.377Z,1019.96
2017-03-31T01:44:12.884Z,1019.94
2017-03-31T01:45:34.817Z,1019.92
2017-03-31T01:46:56.964Z,1019.86
2017-03-31T01:48:19.447Z,1019.79
2017-03-31T01:49:41.564Z,1019.79
2017-03-31T01:51:02.445Z,1019.8
2017-03-31T01:52:24.275Z,1019.77
2017-03-31T01:53:47.156Z,1019.76
2017-03-31T01:55:09.308Z,1019.74
2017-03-31T01:56:31.517Z,1019.72
2017-03-31T01:57:53.666Z,1019.72
2017-03-31T01:59:16.127Z,1019.71
2017-03-31T02:00:37.988Z,1019.74
2017-03-31T02:01:59.516Z,1019.75
2017-03-31T02:03:22.036Z,1019.7
2017-03-31T02:04:43.862Z,1019.68
2017-03-31T02:06:05.707Z,1019.66
2017-03-31T02:07:27.877Z,1019.66
2017-03-31T02:08:50.346Z,1019.64
2017-03-31T02:10:13.194Z,1019.63
2017-03-31T02:11:35.305Z,1019.57
2017-03-31T02:12:56.857Z,1019.55
2017-03-31T02:14:18.714Z,1019.56
2017-03-31T02:15:41.159Z,1019.6
2017-03-31T02:17:03.622Z,1019.58
2017-03-31T02:18:25.818Z,1019.57
2017-03-31T02:19:47.324Z,1019.53
2017-03-31T02:21:09.463Z,1019.5
2017-03-31T02:22:30.646Z,1019.47
2017-03-31T02:23:52.465Z,1019.45
2017-03-31T02:25:13.969Z,1019.47
2017-03-31T02:26:35.847Z,1019.45
2017-03-31T02:27:57.675Z,1019.43
2017-03-31T02:29:19.805Z,1019.42
2017-03-31T02:30:41.968Z,1019.39
2017-03-31T02:32:03.776Z,1019.37
2017-03-31T02:33:25.604Z,1019.39
2017-03-31T02:34:47.918Z,1019.36
2017-03-31T02:36:09.758Z,1019.34
2017-03-31T02:37:32.546Z,1019.33
2017-03-31T02:38:53.756Z,1019.33
2017-03-31T02:40:16.254Z,1019.31
2017-03-31T02:41:37.756Z,1019.27
2017-03-31T02:42:59.846Z,1019.29
2017-03-31T02:44:20.726Z,1019.23
2017-03-31T02:45:42.880Z,1019.26
2017-03-31T02:47:05.336Z,1019.24
2017-03-31T02:48:27.755Z,1019.19
2017-03-31T02:49:49.596Z,1019.18
2017-03-31T02:51:11.157Z,1019.17
2017-03-31T02:52:33.310Z,1019.17
2017-03-31T02:53:55.685Z,1019.18
2017-03-31T02:55:17.804Z,1019.14
2017-03-31T02:56:39.647Z,1019.11
2017-03-31T02:58:01.792Z,1019.12
2017-03-31T02:59:23.601Z,1019.1
2017-03-31T03:00:45.731Z,1019.1
2017-03-31T03:02:07.556Z,1019.02
2017-03-31T03:03:29.384Z,1019.02
2017-03-31T03:04:50.887Z,1019.04
2017-03-31T03:06:12.088Z,1019.01
2017-03-31T03:07:34.234Z,1018.99
2017-03-31T03:08:56.364Z,1018.98
2017-03-31T03:10:18.495Z,1018.96
2017-03-31T03:11:40.003Z,1018.9
2017-03-31T03:13:02.193Z,1018.92
2017-03-31T03:14:24.626Z,1018.88
2017-03-31T03:15:47.047Z,1018.88
2017-03-31T03:17:09.695Z,1018.87
2017-03-31T03:18:31.516Z,1018.84
2017-03-31T03:19:53.977Z,1018.82
2017-03-31T03:21:16.969Z,1018.82
2017-03-31T03:22:38.808Z,1018.81
2017-03-31T03:24:00.316Z,1018.76
2017-03-31T03:25:22.124Z,1018.75
2017-03-31T03:26:43.876Z,1018.76
2017-03-31T03:28:05.837Z,1018.75
2017-03-31T03:29:27.663Z,1018.76
2017-03-31T03:30:49.826Z,1018.75
2017-03-31T03:32:11.673Z,1018.75
2017-03-31T03:33:34.138Z,1018.72
2017-03-31T03:34:55.954Z,1018.71
2017-03-31T03:36:17.908Z,1018.7
2017-03-31T03:37:40.299Z,1018.66
2017-03-31T03:39:02.106Z,1018.67
2017-03-31T03:40:24.244Z,1018.68
2017-03-31T03:41:46.455Z,1018.62
2017-03-31T03:43:08.249Z,1018.63
2017-03-31T03:44:29.444Z,1018.62
2017-03-31T03:45:51.596Z,1018.56
2017-03-31T03:47:13.495Z,1018.57
2017-03-31T03:48:35.654Z,1018.56
2017-03-31T03:49:57.792Z,1018.5
2017-03-31T03:51:19.322Z,1018.53
2017-03-31T03:52:41.454Z,1018.47
2017-03-31T03:54:03.200Z,1018.46
2017-03-31T03:55:25.169Z,1018.46
2017-03-31T03:56:46.846Z,1018.42
2017-03-31T03:58:08.036Z,1018.4
2017-03-31T03:59:30.745Z,1018.39
2017-03-31T04:00:52.563Z,1018.37
2017-03-31T04:02:14.704Z,1018.36
2017-03-31T04:03:36.595Z,1018.32
2017-03-31T04:04:58.663Z,1018.32
2017-03-31T04:06:20.514Z,1018.28
2017-03-31T04:07:42.654Z,1018.23
2017-03-31T04:09:04.144Z,1018.23
2017-03-31T04:10:26.995Z,1018.19
2017-03-31T04:11:48.816Z,1018.18
2017-03-31T04:13:10.439Z,1018.13
2017-03-31T04:14:32.277Z,1018.12
2017-03-31T04:15:54.436Z,1018.15
2017-03-31T04:17:15.973Z,1018.08
2017-03-31T04:18:38.465Z,1018.07
2017-03-31T04:20:00.969Z,1018.08
2017-03-31T04:21:22.735Z,1018.03
2017-03-31T04:22:44.875Z,1018.05
2017-03-31T04:24:07.332Z,1018.03
2017-03-31T04:25:29.163Z,1018.05
2017-03-31T04:26:51.558Z,1018.04
2017-03-31T04:28:13.615Z,1018.04
2017-03-31T04:29:34.881Z,1018
2017-03-31T04:30:56.426Z,1017.99
2017-03-31T04:32:18.585Z,1017.98
2017-03-31T04:33:40.407Z,1017.94
2017-03-31T04:35:02.856Z,1017.96
2017-03-31T04:36:24.465Z,1017.94
2017-03-31T04:37:47.015Z,1017.96
2017-03-31T04:39:08.227Z,1017.96
2017-03-31T04:40:29.736Z,1017.95
2017-03-31T04:41:51.884Z,1017.91
2017-03-31T04:43:14.395Z,1017.94
2017-03-31T04:44:36.215Z,1017.96
2017-03-31T04:45:57.731Z,1017.92
2017-03-31T04:47:19.968Z,1017.89
2017-03-31T04:48:42.715Z,1017.81
2017-03-31T04:50:04.669Z,1017.82
2017-03-31T04:51:26.170Z,1017.77
2017-03-31T04:52:48.305Z,1017.78
2017-03-31T04:54:10.115Z,1017.74
2017-03-31T04:55:31.721Z,1017.76
2017-03-31T04:56:53.666Z,1017.76
2017-03-31T04:58:15.816Z,1017.81
2017-03-31T04:59:38.255Z,1017.74
2017-03-31T05:01:00.396Z,1017.72
2017-03-31T05:02:22.214Z,1017.7
2017-03-31T05:03:44.357Z,1017.68
2017-03-31T05:05:06.754Z,1017.7
2017-03-31T05:06:28.607Z,1017.69
2017-03-31T05:07:50.745Z,1017.73
2017-03-31T05:09:12.914Z,1017.77
2017-03-31T05:10:35.878Z,1017.7
2017-03-31T05:11:58.085Z,1017.74
2017-03-31T05:13:19.966Z,1017.71
2017-03-31T05:14:41.795Z,1017.72
2017-03-31T05:16:03.865Z,1017.69
2017-03-31T05:17:26.386Z,1017.7
2017-03-31T05:18:48.840Z,1017.67
2017-03-31T05:20:11.005Z,1017.76
2017-03-31T05:21:32.825Z,1017.74
2017-03-31T05:22:54.675Z,1017.77
2017-03-31T05:24:16.497Z,1017.76
2017-03-31T05:25:38.651Z,1017.76
2017-03-31T05:27:01.054Z,1017.76
2017-03-31T05:28:22.565Z,1017.75
2017-03-31T05:29:44.074Z,1017.72
2017-03-31T05:31:05.964Z,1017.72
2017-03-31T05:32:28.396Z,1017.7
2017-03-31T05:33:50.318Z,1017.67
2017-03-31T05:35:12.474Z,1017.62
2017-03-31T05:36:34.640Z,1017.65
2017-03-31T05:37:56.394Z,1017.66
2017-03-31T05:39:18.234Z,1017.64
2017-03-31T05:40:40.275Z,1017.66
2017-03-31T05:42:02.413Z,1017.64
2017-03-31T05:43:24.566Z,1017.65
2017-03-31T05:44:46.375Z,1017.66
2017-03-31T05:46:08.490Z,1017.66
2017-03-31T05:47:30.419Z,1017.65
2017-03-31T05:48:52.856Z,1017.65
2017-03-31T05:50:14.687Z,1017.66
2017-03-31T05:51:36.525Z,1017.71
2017-03-31T05:52:57.726Z,1017.64
2017-03-31T05:54:20.155Z,1017.72
2017-03-31T05:55:42.612Z,1017.68
2017-03-31T05:57:04.508Z,1017.7
2017-03-31T05:58:26.689Z,1017.65
2017-03-31T05:59:49.151Z,1017.67
2017-03-31T06:01:11.416Z,1017.65
2017-03-31T06:02:33.268Z,1017.66
2017-03-31T06:03:54.898Z,1017.67
2017-03-31T06:05:17.096Z,1017.62
2017-03-31T06:06:38.996Z,1017.62
2017-03-31T06:08:01.171Z,1017.63
2017-03-31T06:09:22.995Z,1017.69
2017-03-31T06:10:44.416Z,1017.66
2017-03-31T06:12:05.946Z,1017.63
2017-03-31T06:13:27.462Z,1017.6
2017-03-31T06:14:49.654Z,1017.65
2017-03-31T06:16:11.748Z,1017.64
2017-03-31T06:17:34.333Z,1017.68
2017-03-31T06:18:56.258Z,1017.69
2017-03-31T06:20:18.103Z,1017.63
2017-03-31T06:21:40.518Z,1017.63
2017-03-31T06:23:02.656Z,1017.59
2017-03-31T06:24:24.513Z,1017.57
2017-03-31T06:25:46.417Z,1017.58
2017-03-31T06:27:08.814Z,1017.53
2017-03-31T06:28:31.063Z,1017.54
2017-03-31T06:29:52.674Z,1017.49
2017-03-31T06:31:14.186Z,1017.51
2017-03-31T06:32:36.587Z,1017.5
2017-03-31T06:33:58.780Z,1017.51
2017-03-31T06:35:20.598Z,1017.49
2017-03-31T06:36:42.447Z,1017.42
2017-03-31T06:38:04.886Z,1017.41
2017-03-31T06:39:27.058Z,1017.43
2017-03-31T06:40:49.518Z,1017.35
2017-03-31T06:42:11.454Z,1017.35
2017-03-31T06:43:33.845Z,1017.34
2017-03-31T06:44:55.976Z,1017.32
2017-03-31T06:46:17.832Z,1017.34
2017-03-31T06:47:39.677Z,1017.34
2017-03-31T06:49:02.137Z,1017.32
2017-03-31T06:50:24.017Z,1017.34
2017-03-31T06:51:46.499Z,1017.34
2017-03-31T06:53:08.667Z,1017.35
2017-03-31T06:54:31.089Z,1017.33
2017-03-31T06:55:53.237Z,1017.3
2017-03-31T06:57:15.401Z,1017.28
2017-03-31T06:58:37.877Z,1017.25
2017-03-31T07:00:00.283Z,1017.24
2017-03-31T07:01:21.808Z,1017.22
2017-03-31T07:02:43.945Z,1017.22
2017-03-31T07:04:05.786Z,1017.27
2017-03-31T07:05:28.500Z,1017.26
2017-03-31T07:06:50.017Z,1017.27
2017-03-31T07:08:11.529Z,1017.26
2017-03-31T07:09:33.353Z,1017.26
2017-03-31T07:10:55.812Z,1017.2
2017-03-31T07:12:17.959Z,1017.14
2017-03-31T07:13:40.145Z,1017.15
2017-03-31T07:15:02.306Z,1017.14
2017-03-31T07:16:25.058Z,1017.09
2017-03-31T07:17:47.208Z,1017.16
2017-03-31T07:19:09.356Z,1017.13
2017-03-31T07:20:31.224Z,1017.15
2017-03-31T07:21:52.667Z,1017.15
2017-03-31T07:23:14.810Z,1017.14
2017-03-31T07:24:36.666Z,1017.14
2017-03-31T07:25:58.226Z,1017.03
2017-03-31T07:27:20.354Z,1017.05
2017-03-31T07:28:42.499Z,1017.05
2017-03-31T07:30:04.991Z,1017.06
2017-03-31T07:31:26.518Z,1017.02
2017-03-31T07:32:49.066Z,1017.08
2017-03-31T07:34:11.220Z,1017.04
2017-03-31T07:35:32.437Z,1017.07
2017-03-31T07:36:54.357Z,1017.07
2017-03-31T07:38:16.751Z,1017.04
2017-03-31T07:39:38.568Z,1017.02
2017-03-31T07:41:01.041Z,1017.01
2017-03-31T07:42:23.186Z,1017.02
2017-03-31T07:43:45.388Z,1017.02
2017-03-31T07:45:07.551Z,1016.94
2017-03-31T07:46:28.775Z,1016.91
2017-03-31T07:47:51.098Z,1016.86
2017-03-31T07:49:12.909Z,1016.81
2017-03-31T07:50:35.056Z,1016.77
2017-03-31T07:51:56.908Z,1016.79
2017-03-31T07:53:18.746Z,1016.77
2017-03-31T07:54:41.609Z,1016.7
2017-03-31T07:56:03.207Z,1016.71
2017-03-31T07:57:24.818Z,1016.68
2017-03-31T07:58:47.299Z,1016.59
2017-03-31T08:00:09.851Z,1016.59
2017-03-31T08:01:32.016Z,1016.55
2017-03-31T08:02:54.486Z,1016.57
2017-03-31T08:04:16.365Z,1016.54
2017-03-31T08:05:38.755Z,1016.53
2017-03-31T08:07:01.296Z,1016.53
2017-03-31T08:08:23.773Z,1016.49
2017-03-31T08:09:46.046Z,1016.44
2017-03-31T08:11:08.196Z,1016.45
2017-03-31T08:12:29.733Z,1016.43
2017-03-31T08:13:51.239Z,1016.43
2017-03-31T08:15:13.423Z,1016.43
2017-03-31T08:16:35.567Z,1016.4
2017-03-31T08:17:57.747Z,1016.39
2017-03-31T08:19:19.376Z,1016.42
2017-03-31T08:20:41.529Z,1016.45
2017-03-31T08:22:03.385Z,1016.43
2017-03-31T08:23:25.876Z,1016.5
2017-03-31T08:24:48.036Z,1016.43
2017-03-31T08:26:09.678Z,1016.41
2017-03-31T08:27:32.691Z,1016.42
2017-03-31T08:28:54.519Z,1016.38
2017-03-31T08:30:16.025Z,1016.37
2017-03-31T08:31:38.186Z,1016.3
2017-03-31T08:33:00.486Z,1016.27
2017-03-31T08:34:22.334Z,1016.26
2017-03-31T08:35:43.555Z,1016.26
2017-03-31T08:37:05.499Z,1016.24
2017-03-31T08:38:27.638Z,1016.21
2017-03-31T08:39:50.105Z,1016.26
2017-03-31T08:41:11.963Z,1016.23
2017-03-31T08:42:34.256Z,1016.27
2017-03-31T08:43:55.798Z,1016.27
2017-03-31T08:45:17.758Z,1016.28
2017-03-31T08:46:39.949Z,1016.28
2017-03-31T08:48:01.784Z,1016.28
2017-03-31T08:49:23.923Z,1016.3
2017-03-31T08:50:45.247Z,1016.33
2017-03-31T08:52:07.084Z,1016.35
2017-03-31T08:53:29.296Z,1016.27
2017-03-31T08:54:51.137Z,1016.3
2017-03-31T08:56:12.969Z,1016.31
2017-03-31T08:57:35.132Z,1016.27
2017-03-31T08:58:57.004Z,1016.25
2017-03-31T09:00:18.515Z,1016.23
2017-03-31T09:01:40.699Z,1016.18
2017-03-31T09:03:02.847Z,1016.2
2017-03-31T09:04:24.665Z,1016.17
2017-03-31T09:05:46.728Z,1016.15
2017-03-31T09:07:08.567Z,1016.16
2017-03-31T09:08:30.713Z,1016.19
2017-03-31T09:09:52.966Z,1016.19
2017-03-31T09:11:15.424Z,1016.16
2017-03-31T09:12:37.628Z,1016.14
2017-03-31T09:13:59.473Z,1016.13
2017-03-31T09:15:21.341Z,1016.1
2017-03-31T09:16:43.734Z,1016.12
2017-03-31T09:18:05.584Z,1016.07
2017-03-31T09:19:27.097Z,1016.06
2017-03-31T09:20:48.933Z,1016.03
2017-03-31T09:22:10.705Z,1016.01
2017-03-31T09:23:32.865Z,1015.98
2017-03-31T09:24:55.467Z,1015.99
2017-03-31T09:26:17.923Z,1016.02
2017-03-31T09:27:40.777Z,1016.01
2017-03-31T09:29:02.915Z,1015.97
2017-03-31T09:30:24.767Z,1015.98
2017-03-31T09:31:47.048Z,1015.92
2017-03-31T09:33:08.844Z,1015.94
2017-03-31T09:34:30.994Z,1015.87
2017-03-31T09:35:53.172Z,1015.88
2017-03-31T09:37:15.336Z,1015.84
2017-03-31T09:38:37.615Z,1015.86
2017-03-31T09:40:00.108Z,1015.86
2017-03-31T09:41:22.572Z,1015.77
2017-03-31T09:42:44.742Z,1015.76
2017-03-31T09:44:07.240Z,1015.77
2017-03-31T09:45:29.396Z,1015.74
2017-03-31T09:46:51.233Z,1015.74
2017-03-31T09:48:13.046Z,1015.74
2017-03-31T09:49:35.525Z,1015.72
2017-03-31T09:50:57.380Z,1015.69
2017-03-31T09:52:19.545Z,1015.71
2017-03-31T09:53:41.396Z,1015.66
2017-03-31T09:55:03.911Z,1015.61
2017-03-31T09:56:26.079Z,1015.59
2017-03-31T09:57:48.335Z,1015.56
2017-03-31T09:59:10.496Z,1015.62
2017-03-31T10:00:32.306Z,1015.56
2017-03-31T10:01:54.555Z,1015.55
2017-03-31T10:03:16.465Z,1015.53
2017-03-31T10:04:37.677Z,1015.5
2017-03-31T10:06:00.086Z,1015.54
2017-03-31T10:07:21.600Z,1015.49
2017-03-31T10:08:43.494Z,1015.47
2017-03-31T10:10:05.326Z,1015.46
2017-03-31T10:11:27.128Z,1015.46
2017-03-31T10:12:49.317Z,1015.42
2017-03-31T10:14:11.799Z,1015.38
2017-03-31T10:15:33.965Z,1015.36
2017-03-31T10:16:56.148Z,1015.42
2017-03-31T10:18:18.327Z,1015.36
2017-03-31T10:19:40.217Z,1015.34
2017-03-31T10:21:02.777Z,1015.31
2017-03-31T10:22:24.625Z,1015.29
2017-03-31T10:23:47.143Z,1015.24
2017-03-31T10:25:08.974Z,1015.24
2017-03-31T10:26:31.464Z,1015.27
2017-03-31T10:27:53.343Z,1015.27
2017-03-31T10:29:15.513Z,1015.27
2017-03-31T10:30:37.965Z,1015.24
2017-03-31T10:31:59.588Z,1015.25
2017-03-31T10:33:21.742Z,1015.22
2017-03-31T10:34:44.291Z,1015.2
2017-03-31T10:36:06.478Z,1015.22
2017-03-31T10:37:28.653Z,1015.19
2017-03-31T10:38:50.833Z,1015.17
2017-03-31T10:40:12.433Z,1015.16
2017-03-31T10:41:34.485Z,1015.07
2017-03-31T10:42:56.794Z,1015.08
2017-03-31T10:44:18.937Z,1015.09
2017-03-31T10:45:40.772Z,1015.14
2017-03-31T10:47:02.595Z,1015.09
2017-03-31T10:48:23.797Z,1015.09
2017-03-31T10:49:45.896Z,1015.07
2017-03-31T10:51:07.731Z,1015.05
2017-03-31T10:52:29.556Z,1015.06
2017-03-31T10:53:51.415Z,1015.08
2017-03-31T10:55:13.617Z,1014.98
2017-03-31T10:56:35.773Z,1014.92
2017-03-31T10:57:58.030Z,1014.92
2017-03-31T10:59:20.288Z,1014.89
2017-03-31T11:00:42.680Z,1014.95
2017-03-31T11:02:04.806Z,1014.89
2017-03-31T11:03:26.645Z,1014.89
2017-03-31T11:04:48.800Z,1014.81
2017-03-31T11:06:11.217Z,1014.77
2017-03-31T11:07:33.376Z,1014.78
2017-03-31T11:08:55.226Z,1014.78
2017-03-31T11:10:17.097Z,1014.81
2017-03-31T11:11:39.562Z,1014.84
2017-03-31T11:13:01.746Z,1014.85
2017-03-31T11:14:55.917Z,1014.88
2017-03-31T11:16:18.125Z,1014.75
2017-03-31T11:17:41.573Z,1014.68
2017-03-31T11:19:03.107Z,1014.64
2017-03-31T11:20:24.947Z,1014.65
2017-03-31T11:21:47.719Z,1014.57
2017-03-31T11:23:09.916Z,1014.56
2017-03-31T11:24:32.517Z,1014.52
2017-03-31T11:25:54.667Z,1014.49
2017-03-31T11:27:17.087Z,1014.5
2017-03-31T11:28:38.615Z,1014.47
2017-03-31T11:30:01.095Z,1014.49
2017-03-31T11:31:23.319Z,1014.5
2017-03-31T11:32:47.871Z,1014.49
2017-03-31T11:34:10.033Z,1014.48
2017-03-31T11:35:32.002Z,1014.45
2017-03-31T11:36:54.357Z,1014.49
2017-03-31T11:38:17.186Z,1014.5
2017-03-31T11:39:39.666Z,1014.51
2017-03-31T11:41:01.815Z,1014.52
2017-03-31T11:42:23.332Z,1014.48
2017-03-31T11:43:45.769Z,1014.51
2017-03-31T11:45:07.606Z,1014.46
2017-03-31T11:46:29.768Z,1014.43
2017-03-31T11:47:51.965Z,1014.43
2017-03-31T11:49:14.062Z,1014.45
2017-03-31T11:50:36.677Z,1014.39
2017-03-31T11:51:58.532Z,1014.38
2017-03-31T11:53:20.362Z,1014.36
2017-03-31T11:54:42.808Z,1014.39
2017-03-31T11:56:04.643Z,1014.39
2017-03-31T11:57:26.482Z,1014.36
2017-03-31T11:58:48.972Z,1014.36
2017-03-31T12:00:10.300Z,1014.32
2017-03-31T12:01:31.855Z,1014.27
2017-03-31T12:02:54.002Z,1014.23
2017-03-31T12:04:16.170Z,1014.24
2017-03-31T12:05:38.218Z,1014.2
2017-03-31T12:07:00.390Z,1014.18
2017-03-31T12:08:22.248Z,1014.06
2017-03-31T12:09:44.785Z,1014
2017-03-31T12:11:07.059Z,1014.05
2017-03-31T12:12:29.252Z,1013.97
2017-03-31T12:13:51.764Z,1014.02
2017-03-31T12:15:13.936Z,1014.01
2017-03-31T12:16:36.791Z,1014
2017-03-31T12:17:59.286Z,1014.05
2017-03-31T12:19:21.465Z,1014.08
2017-03-31T12:20:42.998Z,1014.12
2017-03-31T12:22:05.736Z,1014.11
2017-03-31T12:23:27.924Z,1014.11
2017-03-31T12:24:50.087Z,1014.06
2017-03-31T12:26:12.313Z,1014.02
2017-03-31T12:27:34.787Z,1014.03
2017-03-31T12:28:56.627Z,1014
2017-03-31T12:30:18.486Z,1013.91
2017-03-31T12:31:40.336Z,1013.87
2017-03-31T12:33:03.353Z,1013.87
2017-03-31T12:34:25.205Z,1013.92
2017-03-31T12:35:46.421Z,1013.88
2017-03-31T12:37:08.327Z,1013.92
2017-03-31T12:38:30.961Z,1013.83
2017-03-31T12:39:54.405Z,1013.84
2017-03-31T12:41:18.090Z,1013.76
2017-03-31T12:42:41.480Z,1013.8
2017-03-31T12:44:05.220Z,1013.82
2017-03-31T12:45:27.787Z,1013.78
2017-03-31T12:46:49.644Z,1013.8
2017-03-31T12:48:11.162Z,1013.76
2017-03-31T12:49:33.309Z,1013.8
2017-03-31T12:50:54.838Z,1013.79
2017-03-31T12:52:17.062Z,1013.72
2017-03-31T12:53:39.530Z,1013.64
2017-03-31T12:55:01.993Z,1013.63
2017-03-31T12:56:23.907Z,1013.55
2017-03-31T12:57:45.822Z,1013.56
2017-03-31T12:59:08.330Z,1013.53
2017-03-31T13:00:30.746Z,1013.45
2017-03-31T13:01:52.606Z,1013.46
2017-03-31T13:03:15.065Z,1013.42
2017-03-31T13:04:37.259Z,1013.43
2017-03-31T13:05:59.721Z,1013.42
2017-03-31T13:07:21.275Z,1013.38
2017-03-31T13:08:43.493Z,1013.4
2017-03-31T13:10:05.636Z,1013.37
2017-03-31T13:11:28.296Z,1013.39
2017-03-31T13:12:50.503Z,1013.39
2017-03-31T13:14:12.029Z,1013.35
2017-03-31T13:15:33.865Z,1013.33
2017-03-31T13:16:56.391Z,1013.33
2017-03-31T13:18:17.947Z,1013.42
2017-03-31T13:19:40.659Z,1013.43
2017-03-31T13:21:02.821Z,1013.4
2017-03-31T13:22:25.277Z,1013.35
2017-03-31T13:23:47.553Z,1013.35
2017-03-31T13:25:10.018Z,1013.31
2017-03-31T13:26:31.887Z,1013.35
2017-03-31T13:27:54.391Z,1013.32
2017-03-31T13:29:16.236Z,1013.34
2017-03-31T13:30:38.117Z,1013.27
2017-03-31T13:32:00.474Z,1013.27
2017-03-31T13:33:22.270Z,1013.25
2017-03-31T13:34:44.438Z,1013.24
2017-03-31T13:36:06.308Z,1013.23
2017-03-31T13:37:28.867Z,1013.27
2017-03-31T13:38:51.621Z,1013.28
2017-03-31T13:40:14.087Z,1013.21
2017-03-31T13:41:36.574Z,1013.19
2017-03-31T13:42:59.026Z,1013.18
2017-03-31T13:44:21.218Z,1013.17
2017-03-31T13:45:43.686Z,1013.17
2017-03-31T13:47:06.082Z,1013.14
2017-03-31T13:48:28.235Z,1013.11
2017-03-31T13:49:50.345Z,1013.12
2017-03-31T13:51:12.556Z,1013.08
2017-03-31T13:52:35.042Z,1013.11
2017-03-31T13:53:57.017Z,1013.04
2017-03-31T13:55:19.450Z,1013.05
2017-03-31T13:56:41.372Z,1013.07
2017-03-31T13:58:03.887Z,1013.04
2017-03-31T13:59:26.079Z,1013.05
2017-03-31T14:00:48.201Z,1013.03
2017-03-31T14:02:10.104Z,1013.01
2017-03-31T14:03:31.336Z,1013
2017-03-31T14:04:53.429Z,1013.01
2017-03-31T14:06:16.241Z,1012.99
2017-03-31T14:07:38.399Z,1012.92
2017-03-31T14:09:00.570Z,1012.9
2017-03-31T14:10:22.718Z,1012.92
2017-03-31T14:11:45.132Z,1012.86
2017-03-31T14:13:06.805Z,1012.86
2017-03-31T14:14:28.957Z,1012.88
2017-03-31T14:15:51.153Z,1012.88
2017-03-31T14:17:13.549Z,1012.83
2017-03-31T14:18:35.401Z,1012.8
2017-03-31T14:19:57.567Z,1012.78
2017-03-31T14:21:20.077Z,1012.82
2017-03-31T14:22:41.875Z,1012.77
2017-03-31T14:24:03.734Z,1012.78
2017-03-31T14:25:25.899Z,1012.77
2017-03-31T14:26:47.097Z,1012.79
2017-03-31T14:28:09.578Z,1012.74
2017-03-31T14:29:30.769Z,1012.76
2017-03-31T14:30:52.989Z,1012.8
2017-03-31T14:32:15.187Z,1012.76
2017-03-31T14:33:38.131Z,1012.74
2017-03-31T14:34:59.997Z,1012.75
2017-03-31T14:36:21.521Z,1012.69
2017-03-31T14:37:43.749Z,1012.64
2017-03-31T14:39:06.159Z,1012.68
2017-03-31T14:40:28.388Z,1012.67
2017-03-31T14:41:50.877Z,1012.58
2017-03-31T14:43:13.468Z,1012.59
2017-03-31T14:44:35.967Z,1012.59
2017-03-31T14:45:58.469Z,1012.55
2017-03-31T14:47:20.614Z,1012.54
2017-03-31T14:48:42.172Z,1012.54
2017-03-31T14:50:04.362Z,1012.55
2017-03-31T14:51:26.858Z,1012.57
2017-03-31T14:52:49.044Z,1012.54
2017-03-31T14:54:11.217Z,1012.54
2017-03-31T14:55:33.034Z,1012.53
2017-03-31T14:56:55.568Z,1012.51
2017-03-31T14:58:18.058Z,1012.48
2017-03-31T14:59:40.539Z,1012.56
2017-03-31T15:01:02.942Z,1012.49
2017-03-31T15:02:24.955Z,1012.46
2017-03-31T15:03:46.880Z,1012.47
2017-03-31T15:05:09.396Z,1012.46
2017-03-31T15:06:32.189Z,1012.47
2017-03-31T15:07:54.373Z,1012.43
2017-03-31T15:09:16.703Z,1012.46
2017-03-31T15:10:39.164Z,1012.43
2017-03-31T15:12:00.764Z,1012.43
2017-03-31T15:13:22.418Z,1012.44
2017-03-31T15:14:44.886Z,1012.38
2017-03-31T15:16:07.050Z,1012.43
2017-03-31T15:17:29.512Z,1012.4
2017-03-31T15:18:51.395Z,1012.39
2017-03-31T15:20:13.896Z,1012.37
2017-03-31T15:21:35.739Z,1012.41
2017-03-31T15:22:57.993Z,1012.36
2017-03-31T15:24:20.277Z,1012.39
2017-03-31T15:25:42.252Z,1012.36
2017-03-31T15:27:04.126Z,1012.36
2017-03-31T15:28:25.957Z,1012.32
2017-03-31T15:29:48.178Z,1012.34
2017-03-31T15:31:10.390Z,1012.32
2017-03-31T15:32:32.638Z,1012.31
2017-03-31T15:33:55.122Z,1012.36
2017-03-31T15:35:17.319Z,1012.34
2017-03-31T15:36:39.280Z,1012.36
2017-03-31T15:38:01.575Z,1012.3
2017-03-31T15:39:24.029Z,1012.29
2017-03-31T15:40:46.207Z,1012.24
2017-03-31T15:42:08.747Z,1012.27
2017-03-31T15:43:31.215Z,1012.25
2017-03-31T15:44:53.680Z,1012.2
2017-03-31T15:46:16.187Z,1012.23
2017-03-31T15:47:38.394Z,1012.17
2017-03-31T15:49:00.251Z,1012.18
2017-03-31T15:50:22.349Z,1012.2
2017-03-31T15:51:44.422Z,1012.18
2017-03-31T15:53:06.317Z,1012.23
2017-03-31T15:54:28.169Z,1012.2
2017-03-31T15:55:50.487Z,1012.19
2017-03-31T15:57:12.957Z,1012.21
2017-03-31T15:58:35.172Z,1012.22
2017-03-31T15:59:57.342Z,1012.25
2017-03-31T16:01:20.118Z,1012.23
2017-03-31T16:02:42.589Z,1012.21
2017-03-31T16:04:04.856Z,1012.24
2017-03-31T16:05:26.751Z,1012.23
2017-03-31T16:06:49.166Z,1012.24
2017-03-31T16:08:11.025Z,1012.24
2017-03-31T16:09:33.511Z,1012.25
2017-03-31T16:10:55.959Z,1012.21
2017-03-31T16:12:17.786Z,1012.24
2017-03-31T16:13:40.014Z,1012.22
2017-03-31T16:15:02.372Z,1012.26
2017-03-31T16:16:24.574Z,1012.18
2017-03-31T16:17:47.016Z,1012.19
2017-03-31T16:19:09.189Z,1012.18
2017-03-31T16:20:31.376Z,1012.13
2017-03-31T16:21:53.558Z,1012.18
2017-03-31T16:23:15.976Z,1012.17
2017-03-31T16:24:38.508Z,1012.19
2017-03-31T16:26:00.659Z,1012.13
2017-03-31T16:27:22.863Z,1012.17
2017-03-31T16:28:45.323Z,1012.16
2017-03-31T16:30:07.840Z,1012.15
2017-03-31T16:31:30.326Z,1012.13
2017-03-31T16:32:52.189Z,1012.17
2017-03-31T16:34:14.951Z,1012.17
2017-03-31T16:35:37.456Z,1012.14
2017-03-31T16:36:59.638Z,1012.12